sensor_id;sensor_type;location;lat;lon;timestamp;P1;durP1;ratioP1;P2;durP2;ratioP2
26042;SDS011;13818;52.156;5.382;2023-02-28T00:00:47;7.57;;;2.78;;
26042;SDS011;13818;52.156;5.382;2023-02-28T00:03:15;7.70;;;2.92;;
26042;SDS011;13818;52.156;5.382;2023-02-28T00:05:42;7.00;;;2.72;;
26042;SDS011;13818;52.156;5.382;2023-02-28T00:08:09;7.55;;;2.83;;
26042;SDS011;13818;52.156;5.382;2023-02-28T00:10:35;9.75;;;3.17;;
26042;SDS011;13818;52.156;5.382;2023-02-28T00:13:02;9.13;;;3.10;;
26042;SDS011;13818;52.156;5.382;2023-02-28T00:15:31;4.15;;;2.03;;
26042;SDS011;13818;52.156;5.382;2023-02-28T00:17:58;8.20;;;2.95;;
26042;SDS011;13818;52.156;5.382;2023-02-28T00:20:26;11.48;;;2.65;;
26042;SDS011;13818;52.156;5.382;2023-02-28T00:22:53;9.15;;;2.40;;
26042;SDS011;13818;52.156;5.382;2023-02-28T00:25:20;4.93;;;2.20;;
26042;SDS011;13818;52.156;5.382;2023-02-28T00:27:48;6.20;;;2.40;;
26042;SDS011;13818;52.156;5.382;2023-02-28T00:30:16;6.82;;;2.53;;
26042;SDS011;13818;52.156;5.382;2023-02-28T00:32:45;4.88;;;2.22;;
26042;SDS011;13818;52.156;5.382;2023-02-28T00:35:12;6.18;;;2.20;;
26042;SDS011;13818;52.156;5.382;2023-02-28T00:37:40;7.60;;;2.75;;
26042;SDS011;13818;52.156;5.382;2023-02-28T00:40:08;10.07;;;2.45;;
26042;SDS011;13818;52.156;5.382;2023-02-28T00:45:03;14.65;;;2.20;;
26042;SDS011;13818;52.156;5.382;2023-02-28T00:47:31;6.65;;;2.35;;
26042;SDS011;13818;52.156;5.382;2023-02-28T00:49:58;4.15;;;2.20;;
26042;SDS011;13818;52.156;5.382;2023-02-28T00:52:24;5.82;;;2.40;;
26042;SDS011;13818;52.156;5.382;2023-02-28T00:54:53;5.15;;;2.47;;
26042;SDS011;13818;52.156;5.382;2023-02-28T00:57:19;6.25;;;2.17;;
26042;SDS011;13818;52.156;5.382;2023-02-28T00:59:46;4.30;;;2.20;;
26042;SDS011;13818;52.156;5.382;2023-02-28T01:02:12;8.93;;;2.53;;
26042;SDS011;13818;52.156;5.382;2023-02-28T01:04:39;5.82;;;2.17;;
26042;SDS011;13818;52.156;5.382;2023-02-28T01:07:05;6.80;;;2.22;;
26042;SDS011;13818;52.156;5.382;2023-02-28T01:09:32;3.63;;;1.88;;
26042;SDS011;13818;52.156;5.382;2023-02-28T01:12:00;6.07;;;2.08;;
26042;SDS011;13818;52.156;5.382;2023-02-28T01:14:27;5.35;;;2.03;;
26042;SDS011;13818;52.156;5.382;2023-02-28T01:16:53;3.72;;;1.80;;
26042;SDS011;13818;52.156;5.382;2023-02-28T01:19:20;5.40;;;2.17;;
26042;SDS011;13818;52.156;5.382;2023-02-28T01:21:46;6.03;;;1.92;;
26042;SDS011;13818;52.156;5.382;2023-02-28T01:24:13;9.65;;;2.38;;
26042;SDS011;13818;52.156;5.382;2023-02-28T01:26:39;4.88;;;2.22;;
26042;SDS011;13818;52.156;5.382;2023-02-28T01:29:07;6.90;;;2.67;;
26042;SDS011;13818;52.156;5.382;2023-02-28T01:31:33;4.63;;;1.88;;
26042;SDS011;13818;52.156;5.382;2023-02-28T01:34:00;6.30;;;2.15;;
26042;SDS011;13818;52.156;5.382;2023-02-28T01:36:27;7.72;;;2.50;;
26042;SDS011;13818;52.156;5.382;2023-02-28T01:38:53;6.15;;;2.17;;
26042;SDS011;13818;52.156;5.382;2023-02-28T01:41:21;5.35;;;2.17;;
26042;SDS011;13818;52.156;5.382;2023-02-28T01:43:53;7.25;;;2.30;;
26042;SDS011;13818;52.156;5.382;2023-02-28T01:46:29;4.05;;;2.25;;
26042;SDS011;13818;52.156;5.382;2023-02-28T01:48:58;5.97;;;2.00;;
26042;SDS011;13818;52.156;5.382;2023-02-28T01:51:30;7.00;;;2.13;;
26042;SDS011;13818;52.156;5.382;2023-02-28T01:54:04;6.95;;;2.03;;
26042;SDS011;13818;52.156;5.382;2023-02-28T01:56:38;5.40;;;2.40;;
26042;SDS011;13818;52.156;5.382;2023-02-28T01:59:10;5.47;;;2.08;;
26042;SDS011;13818;52.156;5.382;2023-02-28T02:04:07;6.70;;;2.13;;
26042;SDS011;13818;52.156;5.382;2023-02-28T02:06:35;11.88;;;2.55;;
26042;SDS011;13818;52.156;5.382;2023-02-28T02:09:05;6.13;;;2.30;;
26042;SDS011;13818;52.156;5.382;2023-02-28T02:11:32;10.75;;;2.75;;
26042;SDS011;13818;52.156;5.382;2023-02-28T02:17:03;6.13;;;2.45;;
26042;SDS011;13818;52.156;5.382;2023-02-28T02:19:52;7.75;;;2.58;;
26042;SDS011;13818;52.156;5.382;2023-02-28T02:25:33;7.20;;;2.55;;
26042;SDS011;13818;52.156;5.382;2023-02-28T02:28:20;7.43;;;2.40;;
26042;SDS011;13818;52.156;5.382;2023-02-28T02:31:12;6.38;;;2.78;;
26042;SDS011;13818;52.156;5.382;2023-02-28T02:34:10;10.15;;;2.60;;
26042;SDS011;13818;52.156;5.382;2023-02-28T02:36:51;8.35;;;2.40;;
26042;SDS011;13818;52.156;5.382;2023-02-28T02:39:25;8.20;;;2.67;;
26042;SDS011;13818;52.156;5.382;2023-02-28T02:42:00;4.32;;;2.20;;
26042;SDS011;13818;52.156;5.382;2023-02-28T02:44:30;6.40;;;2.58;;
26042;SDS011;13818;52.156;5.382;2023-02-28T02:47:01;5.72;;;2.33;;
26042;SDS011;13818;52.156;5.382;2023-02-28T02:49:35;12.93;;;2.47;;
26042;SDS011;13818;52.156;5.382;2023-02-28T02:52:05;8.68;;;3.08;;
26042;SDS011;13818;52.156;5.382;2023-02-28T02:54:35;5.70;;;2.55;;
26042;SDS011;13818;52.156;5.382;2023-02-28T02:57:04;7.63;;;2.53;;
26042;SDS011;13818;52.156;5.382;2023-02-28T02:59:34;4.60;;;2.58;;
26042;SDS011;13818;52.156;5.382;2023-02-28T03:02:03;5.07;;;2.40;;
26042;SDS011;13818;52.156;5.382;2023-02-28T03:04:35;6.72;;;3.30;;
26042;SDS011;13818;52.156;5.382;2023-02-28T03:07:07;7.55;;;2.85;;
26042;SDS011;13818;52.156;5.382;2023-02-28T03:09:34;8.23;;;2.40;;
26042;SDS011;13818;52.156;5.382;2023-02-28T03:12:02;7.43;;;2.17;;
26042;SDS011;13818;52.156;5.382;2023-02-28T03:14:35;4.80;;;2.45;;
26042;SDS011;13818;52.156;5.382;2023-02-28T03:17:23;8.50;;;2.90;;
26042;SDS011;13818;52.156;5.382;2023-02-28T03:20:01;5.00;;;2.33;;
26042;SDS011;13818;52.156;5.382;2023-02-28T03:22:50;9.27;;;2.53;;
26042;SDS011;13818;52.156;5.382;2023-02-28T03:25:27;7.97;;;2.50;;
26042;SDS011;13818;52.156;5.382;2023-02-28T03:28:02;5.38;;;2.17;;
26042;SDS011;13818;52.156;5.382;2023-02-28T03:30:41;8.57;;;3.00;;
26042;SDS011;13818;52.156;5.382;2023-02-28T03:33:19;9.00;;;2.65;;
26042;SDS011;13818;52.156;5.382;2023-02-28T03:35:51;7.22;;;2.42;;
26042;SDS011;13818;52.156;5.382;2023-02-28T03:38:21;8.07;;;2.88;;
26042;SDS011;13818;52.156;5.382;2023-02-28T03:40:55;4.95;;;2.45;;
26042;SDS011;13818;52.156;5.382;2023-02-28T03:43:30;6.28;;;2.92;;
26042;SDS011;13818;52.156;5.382;2023-02-28T03:46:01;11.43;;;3.17;;
26042;SDS011;13818;52.156;5.382;2023-02-28T03:48:38;7.32;;;3.25;;
26042;SDS011;13818;52.156;5.382;2023-02-28T03:51:08;6.68;;;2.30;;
26042;SDS011;13818;52.156;5.382;2023-02-28T03:53:41;7.38;;;2.97;;
26042;SDS011;13818;52.156;5.382;2023-02-28T03:56:12;10.23;;;3.53;;
26042;SDS011;13818;52.156;5.382;2023-02-28T03:58:44;6.88;;;3.05;;
26042;SDS011;13818;52.156;5.382;2023-02-28T04:01:16;13.95;;;3.53;;
26042;SDS011;13818;52.156;5.382;2023-02-28T04:03:47;7.22;;;3.42;;
26042;SDS011;13818;52.156;5.382;2023-02-28T04:06:17;9.98;;;3.17;;
26042;SDS011;13818;52.156;5.382;2023-02-28T04:08:46;10.23;;;2.90;;
26042;SDS011;13818;52.156;5.382;2023-02-28T04:11:19;8.95;;;3.25;;
26042;SDS011;13818;52.156;5.382;2023-02-28T04:13:48;7.45;;;3.33;;
26042;SDS011;13818;52.156;5.382;2023-02-28T04:16:14;8.27;;;3.38;;
26042;SDS011;13818;52.156;5.382;2023-02-28T04:18:42;8.10;;;3.17;;
26042;SDS011;13818;52.156;5.382;2023-02-28T04:21:09;7.15;;;3.08;;
26042;SDS011;13818;52.156;5.382;2023-02-28T04:23:38;6.10;;;2.72;;
26042;SDS011;13818;52.156;5.382;2023-02-28T04:26:05;11.40;;;2.40;;
26042;SDS011;13818;52.156;5.382;2023-02-28T04:28:32;9.20;;;3.17;;
26042;SDS011;13818;52.156;5.382;2023-02-28T04:30:59;6.68;;;3.45;;
26042;SDS011;13818;52.156;5.382;2023-02-28T04:33:27;6.80;;;2.50;;
26042;SDS011;13818;52.156;5.382;2023-02-28T04:35:58;6.00;;;2.67;;
26042;SDS011;13818;52.156;5.382;2023-02-28T04:38:25;8.25;;;2.25;;
26042;SDS011;13818;52.156;5.382;2023-02-28T04:40:53;3.30;;;2.20;;
26042;SDS011;13818;52.156;5.382;2023-02-28T04:43:22;5.30;;;2.05;;
26042;SDS011;13818;52.156;5.382;2023-02-28T04:45:49;3.80;;;1.52;;
26042;SDS011;13818;52.156;5.382;2023-02-28T04:48:15;5.88;;;2.58;;
26042;SDS011;13818;52.156;5.382;2023-02-28T04:50:41;6.18;;;1.80;;
26042;SDS011;13818;52.156;5.382;2023-02-28T04:53:08;4.68;;;2.47;;
26042;SDS011;13818;52.156;5.382;2023-02-28T04:55:35;3.53;;;1.65;;
26042;SDS011;13818;52.156;5.382;2023-02-28T04:58:02;3.47;;;2.03;;
26042;SDS011;13818;52.156;5.382;2023-02-28T05:00:29;8.32;;;2.30;;
26042;SDS011;13818;52.156;5.382;2023-02-28T05:02:57;6.07;;;2.35;;
26042;SDS011;13818;52.156;5.382;2023-02-28T05:05:23;3.97;;;1.88;;
26042;SDS011;13818;52.156;5.382;2023-02-28T05:07:50;6.13;;;2.53;;
26042;SDS011;13818;52.156;5.382;2023-02-28T05:10:16;5.63;;;2.17;;
26042;SDS011;13818;52.156;5.382;2023-02-28T05:12:43;4.97;;;2.15;;
26042;SDS011;13818;52.156;5.382;2023-02-28T05:15:11;3.92;;;1.80;;
26042;SDS011;13818;52.156;5.382;2023-02-28T05:17:39;8.38;;;1.98;;
26042;SDS011;13818;52.156;5.382;2023-02-28T05:20:06;7.13;;;2.28;;
26042;SDS011;13818;52.156;5.382;2023-02-28T05:22:35;6.68;;;1.90;;
26042;SDS011;13818;52.156;5.382;2023-02-28T05:25:02;3.75;;;2.40;;
26042;SDS011;13818;52.156;5.382;2023-02-28T05:27:29;4.07;;;2.45;;
26042;SDS011;13818;52.156;5.382;2023-02-28T05:29:56;4.75;;;2.47;;
26042;SDS011;13818;52.156;5.382;2023-02-28T05:32:24;4.35;;;2.42;;
26042;SDS011;13818;52.156;5.382;2023-02-28T05:34:50;3.60;;;1.83;;
26042;SDS011;13818;52.156;5.382;2023-02-28T05:37:17;5.47;;;1.98;;
26042;SDS011;13818;52.156;5.382;2023-02-28T05:39:43;6.57;;;2.53;;
26042;SDS011;13818;52.156;5.382;2023-02-28T05:42:10;8.55;;;2.53;;
26042;SDS011;13818;52.156;5.382;2023-02-28T05:44:37;8.48;;;2.30;;
26042;SDS011;13818;52.156;5.382;2023-02-28T05:47:03;6.07;;;3.10;;
26042;SDS011;13818;52.156;5.382;2023-02-28T05:49:31;5.03;;;2.38;;
26042;SDS011;13818;52.156;5.382;2023-02-28T05:51:57;7.15;;;2.70;;
26042;SDS011;13818;52.156;5.382;2023-02-28T05:54:24;5.60;;;2.42;;
26042;SDS011;13818;52.156;5.382;2023-02-28T05:56:50;5.20;;;2.72;;
26042;SDS011;13818;52.156;5.382;2023-02-28T05:59:17;5.40;;;2.67;;
26042;SDS011;13818;52.156;5.382;2023-02-28T06:01:44;5.97;;;3.22;;
26042;SDS011;13818;52.156;5.382;2023-02-28T06:04:13;6.47;;;2.58;;
26042;SDS011;13818;52.156;5.382;2023-02-28T06:06:44;4.05;;;2.60;;
26042;SDS011;13818;52.156;5.382;2023-02-28T06:09:11;8.30;;;3.08;;
26042;SDS011;13818;52.156;5.382;2023-02-28T06:11:38;6.88;;;3.00;;
26042;SDS011;13818;52.156;5.382;2023-02-28T06:14:04;5.03;;;2.78;;
26042;SDS011;13818;52.156;5.382;2023-02-28T06:16:32;4.90;;;2.60;;
26042;SDS011;13818;52.156;5.382;2023-02-28T06:19:01;7.88;;;3.53;;
26042;SDS011;13818;52.156;5.382;2023-02-28T06:21:28;6.32;;;3.08;;
26042;SDS011;13818;52.156;5.382;2023-02-28T06:23:56;5.00;;;3.25;;
26042;SDS011;13818;52.156;5.382;2023-02-28T06:26:24;8.07;;;2.80;;
26042;SDS011;13818;52.156;5.382;2023-02-28T06:28:51;7.25;;;3.45;;
26042;SDS011;13818;52.156;5.382;2023-02-28T06:31:17;7.28;;;2.85;;
26042;SDS011;13818;52.156;5.382;2023-02-28T06:33:45;6.40;;;2.95;;
26042;SDS011;13818;52.156;5.382;2023-02-28T06:36:12;9.05;;;3.22;;
26042;SDS011;13818;52.156;5.382;2023-02-28T06:38:42;6.82;;;2.78;;
26042;SDS011;13818;52.156;5.382;2023-02-28T06:41:10;11.13;;;3.50;;
26042;SDS011;13818;52.156;5.382;2023-02-28T06:43:38;8.77;;;2.65;;
26042;SDS011;13818;52.156;5.382;2023-02-28T06:46:07;6.43;;;2.60;;
26042;SDS011;13818;52.156;5.382;2023-02-28T06:48:34;6.60;;;2.88;;
26042;SDS011;13818;52.156;5.382;2023-02-28T06:51:02;6.20;;;3.17;;
26042;SDS011;13818;52.156;5.382;2023-02-28T06:53:30;7.22;;;3.50;;
26042;SDS011;13818;52.156;5.382;2023-02-28T06:55:56;8.20;;;2.95;;
26042;SDS011;13818;52.156;5.382;2023-02-28T06:58:24;6.25;;;3.22;;
26042;SDS011;13818;52.156;5.382;2023-02-28T07:00:51;5.80;;;3.17;;
26042;SDS011;13818;52.156;5.382;2023-02-28T07:03:19;7.93;;;4.07;;
26042;SDS011;13818;52.156;5.382;2023-02-28T07:05:46;8.85;;;2.88;;
26042;SDS011;13818;52.156;5.382;2023-02-28T07:08:13;9.10;;;3.50;;
26042;SDS011;13818;52.156;5.382;2023-02-28T07:10:40;9.55;;;3.35;;
26042;SDS011;13818;52.156;5.382;2023-02-28T07:13:07;6.32;;;3.30;;
26042;SDS011;13818;52.156;5.382;2023-02-28T07:15:36;6.47;;;3.33;;
26042;SDS011;13818;52.156;5.382;2023-02-28T07:18:03;5.55;;;3.50;;
26042;SDS011;13818;52.156;5.382;2023-02-28T07:20:30;6.25;;;3.50;;
26042;SDS011;13818;52.156;5.382;2023-02-28T07:22:56;7.60;;;3.40;;
26042;SDS011;13818;52.156;5.382;2023-02-28T07:25:23;10.10;;;4.47;;
26042;SDS011;13818;52.156;5.382;2023-02-28T07:27:52;10.55;;;4.00;;
26042;SDS011;13818;52.156;5.382;2023-02-28T07:30:19;7.07;;;3.70;;
26042;SDS011;13818;52.156;5.382;2023-02-28T07:32:47;8.75;;;3.70;;
26042;SDS011;13818;52.156;5.382;2023-02-28T07:35:13;5.65;;;3.85;;
26042;SDS011;13818;52.156;5.382;2023-02-28T07:37:41;8.13;;;3.58;;
26042;SDS011;13818;52.156;5.382;2023-02-28T07:40:08;5.30;;;2.97;;
26042;SDS011;13818;52.156;5.382;2023-02-28T07:42:37;10.98;;;3.42;;
26042;SDS011;13818;52.156;5.382;2023-02-28T07:45:04;6.45;;;3.70;;
26042;SDS011;13818;52.156;5.382;2023-02-28T07:47:32;8.57;;;3.58;;
26042;SDS011;13818;52.156;5.382;2023-02-28T07:50:00;6.13;;;3.00;;
26042;SDS011;13818;52.156;5.382;2023-02-28T07:52:27;10.38;;;3.97;;
26042;SDS011;13818;52.156;5.382;2023-02-28T07:54:53;11.10;;;3.42;;
26042;SDS011;13818;52.156;5.382;2023-02-28T07:57:20;8.63;;;4.10;;
26042;SDS011;13818;52.156;5.382;2023-02-28T07:59:46;10.63;;;3.63;;
26042;SDS011;13818;52.156;5.382;2023-02-28T08:02:13;8.13;;;3.30;;
26042;SDS011;13818;52.156;5.382;2023-02-28T08:04:40;7.25;;;3.42;;
26042;SDS011;13818;52.156;5.382;2023-02-28T08:07:08;7.38;;;3.75;;
26042;SDS011;13818;52.156;5.382;2023-02-28T08:09:38;7.32;;;4.35;;
26042;SDS011;13818;52.156;5.382;2023-02-28T08:12:05;6.25;;;3.75;;
26042;SDS011;13818;52.156;5.382;2023-02-28T08:14:32;6.68;;;3.40;;
26042;SDS011;13818;52.156;5.382;2023-02-28T08:16:59;7.55;;;3.25;;
26042;SDS011;13818;52.156;5.382;2023-02-28T08:19:25;12.00;;;3.17;;
26042;SDS011;13818;52.156;5.382;2023-02-28T08:21:52;6.90;;;3.17;;
26042;SDS011;13818;52.156;5.382;2023-02-28T08:24:20;8.32;;;3.33;;
26042;SDS011;13818;52.156;5.382;2023-02-28T08:26:46;6.15;;;3.92;;
26042;SDS011;13818;52.156;5.382;2023-02-28T08:29:13;6.97;;;3.42;;
26042;SDS011;13818;52.156;5.382;2023-02-28T08:31:41;5.32;;;3.03;;
26042;SDS011;13818;52.156;5.382;2023-02-28T08:34:08;5.72;;;3.53;;
26042;SDS011;13818;52.156;5.382;2023-02-28T08:36:36;7.47;;;3.45;;
26042;SDS011;13818;52.156;5.382;2023-02-28T08:39:04;7.15;;;3.08;;
26042;SDS011;13818;52.156;5.382;2023-02-28T08:41:32;10.55;;;3.78;;
26042;SDS011;13818;52.156;5.382;2023-02-28T08:43:59;7.78;;;3.50;;
26042;SDS011;13818;52.156;5.382;2023-02-28T08:46:26;10.75;;;3.85;;
26042;SDS011;13818;52.156;5.382;2023-02-28T08:48:53;6.40;;;3.65;;
26042;SDS011;13818;52.156;5.382;2023-02-28T08:51:20;6.10;;;3.58;;
26042;SDS011;13818;52.156;5.382;2023-02-28T08:53:51;9.25;;;3.15;;
26042;SDS011;13818;52.156;5.382;2023-02-28T08:56:18;5.72;;;3.45;;
26042;SDS011;13818;52.156;5.382;2023-02-28T08:58:47;8.75;;;4.53;;
26042;SDS011;13818;52.156;5.382;2023-02-28T09:01:15;11.18;;;3.25;;
26042;SDS011;13818;52.156;5.382;2023-02-28T09:03:45;7.23;;;3.53;;
26042;SDS011;13818;52.156;5.382;2023-02-28T09:06:13;6.22;;;3.03;;
26042;SDS011;13818;52.156;5.382;2023-02-28T09:08:40;10.25;;;3.20;;
26042;SDS011;13818;52.156;5.382;2023-02-28T09:11:08;6.55;;;3.00;;
26042;SDS011;13818;52.156;5.382;2023-02-28T09:13:35;5.25;;;2.63;;
26042;SDS011;13818;52.156;5.382;2023-02-28T09:16:04;8.40;;;2.90;;
26042;SDS011;13818;52.156;5.382;2023-02-28T09:18:33;6.50;;;2.72;;
26042;SDS011;13818;52.156;5.382;2023-02-28T09:20:59;3.60;;;2.30;;
26042;SDS011;13818;52.156;5.382;2023-02-28T09:23:29;5.32;;;2.35;;
26042;SDS011;13818;52.156;5.382;2023-02-28T09:25:55;4.65;;;2.20;;
26042;SDS011;13818;52.156;5.382;2023-02-28T09:28:22;6.18;;;1.80;;
26042;SDS011;13818;52.156;5.382;2023-02-28T09:30:49;5.97;;;2.08;;
26042;SDS011;13818;52.156;5.382;2023-02-28T09:33:18;3.65;;;1.85;;
26042;SDS011;13818;52.156;5.382;2023-02-28T09:35:46;2.38;;;1.67;;
26042;SDS011;13818;52.156;5.382;2023-02-28T09:38:13;6.03;;;2.33;;
26042;SDS011;13818;52.156;5.382;2023-02-28T09:40:48;5.03;;;1.58;;
26042;SDS011;13818;52.156;5.382;2023-02-28T09:43:16;2.30;;;1.20;;
26042;SDS011;13818;52.156;5.382;2023-02-28T09:45:47;2.40;;;1.20;;
26042;SDS011;13818;52.156;5.382;2023-02-28T09:48:20;3.33;;;1.45;;
26042;SDS011;13818;52.156;5.382;2023-02-28T09:50:50;1.98;;;1.13;;
26042;SDS011;13818;52.156;5.382;2023-02-28T09:53:20;3.28;;;1.38;;
26042;SDS011;13818;52.156;5.382;2023-02-28T09:55:52;2.97;;;1.40;;
26042;SDS011;13818;52.156;5.382;2023-02-28T09:58:30;2.78;;;1.17;;
26042;SDS011;13818;52.156;5.382;2023-02-28T10:01:00;2.53;;;1.20;;
26042;SDS011;13818;52.156;5.382;2023-02-28T10:03:35;2.10;;;1.40;;
26042;SDS011;13818;52.156;5.382;2023-02-28T10:06:07;3.72;;;1.30;;
26042;SDS011;13818;52.156;5.382;2023-02-28T10:08:39;2.95;;;1.40;;
26042;SDS011;13818;52.156;5.382;2023-02-28T10:11:11;4.20;;;1.40;;
26042;SDS011;13818;52.156;5.382;2023-02-28T10:13:43;3.80;;;1.40;;
26042;SDS011;13818;52.156;5.382;2023-02-28T10:16:20;5.70;;;1.58;;
26042;SDS011;13818;52.156;5.382;2023-02-28T10:18:54;2.42;;;1.60;;
26042;SDS011;13818;52.156;5.382;2023-02-28T10:21:24;2.10;;;1.50;;
26042;SDS011;13818;52.156;5.382;2023-02-28T10:23:56;2.70;;;1.55;;
26042;SDS011;13818;52.156;5.382;2023-02-28T10:26:28;3.53;;;1.40;;
26042;SDS011;13818;52.156;5.382;2023-02-28T10:28:58;1.80;;;1.15;;
26042;SDS011;13818;52.156;5.382;2023-02-28T10:31:25;3.63;;;1.20;;
26042;SDS011;13818;52.156;5.382;2023-02-28T10:33:53;2.50;;;1.27;;
26042;SDS011;13818;52.156;5.382;2023-02-28T10:36:20;3.53;;;1.50;;
26042;SDS011;13818;52.156;5.382;2023-02-28T10:38:48;2.30;;;0.98;;
26042;SDS011;13818;52.156;5.382;2023-02-28T10:41:16;0.75;;;0.75;;
26042;SDS011;13818;52.156;5.382;2023-02-28T10:43:53;5.13;;;1.38;;
26042;SDS011;13818;52.156;5.382;2023-02-28T10:46:48;2.05;;;1.10;;
26042;SDS011;13818;52.156;5.382;2023-02-28T10:49:19;2.47;;;1.33;;
26042;SDS011;13818;52.156;5.382;2023-02-28T10:51:48;1.85;;;1.42;;
26042;SDS011;13818;52.156;5.382;2023-02-28T10:54:18;1.65;;;1.13;;
26042;SDS011;13818;52.156;5.382;2023-02-28T10:59:34;2.63;;;1.38;;
26042;SDS011;13818;52.156;5.382;2023-02-28T11:02:01;4.10;;;1.27;;
26042;SDS011;13818;52.156;5.382;2023-02-28T11:04:36;3.45;;;1.40;;
26042;SDS011;13818;52.156;5.382;2023-02-28T11:07:06;1.83;;;1.27;;
26042;SDS011;13818;52.156;5.382;2023-02-28T11:09:44;2.97;;;1.30;;
26042;SDS011;13818;52.156;5.382;2023-02-28T11:12:19;1.95;;;1.40;;
26042;SDS011;13818;52.156;5.382;2023-02-28T11:14:48;3.38;;;1.50;;
26042;SDS011;13818;52.156;5.382;2023-02-28T11:17:19;6.35;;;2.03;;
26042;SDS011;13818;52.156;5.382;2023-02-28T11:19:49;2.88;;;1.50;;
26042;SDS011;13818;52.156;5.382;2023-02-28T11:22:19;3.13;;;1.45;;
26042;SDS011;13818;52.156;5.382;2023-02-28T11:24:48;3.55;;;2.15;;
26042;SDS011;13818;52.156;5.382;2023-02-28T11:27:25;2.38;;;1.42;;
26042;SDS011;13818;52.156;5.382;2023-02-28T11:30:16;2.87;;;1.60;;
26042;SDS011;13818;52.156;5.382;2023-02-28T11:32:50;3.35;;;1.45;;
26042;SDS011;13818;52.156;5.382;2023-02-28T11:35:21;1.85;;;1.20;;
26042;SDS011;13818;52.156;5.382;2023-02-28T11:37:51;3.55;;;1.23;;
26042;SDS011;13818;52.156;5.382;2023-02-28T11:40:19;4.43;;;1.30;;
26042;SDS011;13818;52.156;5.382;2023-02-28T11:42:57;4.32;;;1.60;;
26042;SDS011;13818;52.156;5.382;2023-02-28T11:45:48;3.78;;;1.02;;
26042;SDS011;13818;52.156;5.382;2023-02-28T11:48:26;2.50;;;1.10;;
26042;SDS011;13818;52.156;5.382;2023-02-28T11:51:03;2.67;;;1.02;;
26042;SDS011;13818;52.156;5.382;2023-02-28T11:53:43;3.13;;;1.50;;
26042;SDS011;13818;52.156;5.382;2023-02-28T11:56:30;4.80;;;1.55;;
26042;SDS011;13818;52.156;5.382;2023-02-28T11:59:02;1.73;;;1.15;;
26042;SDS011;13818;52.156;5.382;2023-02-28T12:01:45;1.75;;;0.95;;
26042;SDS011;13818;52.156;5.382;2023-02-28T12:04:33;3.17;;;1.48;;
26042;SDS011;13818;52.156;5.382;2023-02-28T12:07:14;4.03;;;1.55;;
26042;SDS011;13818;52.156;5.382;2023-02-28T12:09:51;3.08;;;1.48;;
26042;SDS011;13818;52.156;5.382;2023-02-28T12:12:33;5.43;;;1.65;;
26042;SDS011;13818;52.156;5.382;2023-02-28T12:18:09;2.97;;;1.45;;
26042;SDS011;13818;52.156;5.382;2023-02-28T12:20:49;3.00;;;1.63;;
26042;SDS011;13818;52.156;5.382;2023-02-28T12:23:38;3.75;;;1.50;;
26042;SDS011;13818;52.156;5.382;2023-02-28T12:26:16;1.30;;;0.70;;
26042;SDS011;13818;52.156;5.382;2023-02-28T12:28:49;1.60;;;1.10;;
26042;SDS011;13818;52.156;5.382;2023-02-28T12:31:19;2.40;;;1.30;;
26042;SDS011;13818;52.156;5.382;2023-02-28T12:33:50;4.65;;;1.42;;
26042;SDS011;13818;52.156;5.382;2023-02-28T12:36:19;2.08;;;0.82;;
26042;SDS011;13818;52.156;5.382;2023-02-28T12:38:52;2.42;;;1.40;;
26042;SDS011;13818;52.156;5.382;2023-02-28T12:41:23;6.35;;;1.50;;
26042;SDS011;13818;52.156;5.382;2023-02-28T12:43:56;2.55;;;1.23;;
26042;SDS011;13818;52.156;5.382;2023-02-28T12:46:30;2.90;;;1.25;;
26042;SDS011;13818;52.156;5.382;2023-02-28T12:49:00;3.78;;;1.25;;
26042;SDS011;13818;52.156;5.382;2023-02-28T12:51:32;2.42;;;1.40;;
26042;SDS011;13818;52.156;5.382;2023-02-28T12:56:38;1.83;;;1.35;;
26042;SDS011;13818;52.156;5.382;2023-02-28T12:59:15;4.07;;;1.20;;
26042;SDS011;13818;52.156;5.382;2023-02-28T13:02:02;1.83;;;1.17;;
26042;SDS011;13818;52.156;5.382;2023-02-28T13:04:53;2.08;;;1.20;;
26042;SDS011;13818;52.156;5.382;2023-02-28T13:10:41;2.42;;;1.13;;
26042;SDS011;13818;52.156;5.382;2023-02-28T13:13:13;3.13;;;1.42;;
26042;SDS011;13818;52.156;5.382;2023-02-28T13:15:56;2.42;;;1.30;;
26042;SDS011;13818;52.156;5.382;2023-02-28T13:18:32;4.03;;;1.52;;
26042;SDS011;13818;52.156;5.382;2023-02-28T13:21:02;2.63;;;1.30;;
26042;SDS011;13818;52.156;5.382;2023-02-28T13:29:34;3.92;;;1.58;;
26042;SDS011;13818;52.156;5.382;2023-02-28T13:44:01;2.53;;;1.35;;
26042;SDS011;13818;52.156;5.382;2023-02-28T13:51:46;4.05;;;1.50;;
26042;SDS011;13818;52.156;5.382;2023-02-28T13:54:19;5.10;;;1.48;;
26042;SDS011;13818;52.156;5.382;2023-02-28T13:59:28;3.20;;;1.50;;
26042;SDS011;13818;52.156;5.382;2023-02-28T14:02:06;4.80;;;1.92;;
26042;SDS011;13818;52.156;5.382;2023-02-28T14:05:00;1.88;;;1.13;;
26042;SDS011;13818;52.156;5.382;2023-02-28T14:07:29;2.97;;;1.60;;
26042;SDS011;13818;52.156;5.382;2023-02-28T14:09:59;3.55;;;1.65;;
26042;SDS011;13818;52.156;5.382;2023-02-28T14:15:39;4.43;;;1.40;;
26042;SDS011;13818;52.156;5.382;2023-02-28T14:18:16;3.53;;;1.67;;
26042;SDS011;13818;52.156;5.382;2023-02-28T14:20:46;3.58;;;1.40;;
26042;SDS011;13818;52.156;5.382;2023-02-28T14:23:17;2.75;;;1.50;;
26042;SDS011;13818;52.156;5.382;2023-02-28T14:25:59;3.33;;;1.30;;
26042;SDS011;13818;52.156;5.382;2023-02-28T14:28:39;3.40;;;1.40;;
26042;SDS011;13818;52.156;5.382;2023-02-28T14:31:16;3.42;;;1.50;;
26042;SDS011;13818;52.156;5.382;2023-02-28T14:33:59;3.92;;;1.95;;
26042;SDS011;13818;52.156;5.382;2023-02-28T14:36:36;4.13;;;2.10;;
26042;SDS011;13818;52.156;5.382;2023-02-28T14:39:04;3.15;;;1.30;;
26042;SDS011;13818;52.156;5.382;2023-02-28T14:41:34;2.30;;;1.30;;
26042;SDS011;13818;52.156;5.382;2023-02-28T14:44:13;2.92;;;1.50;;
26042;SDS011;13818;52.156;5.382;2023-02-28T14:46:41;2.47;;;1.13;;
26042;SDS011;13818;52.156;5.382;2023-02-28T14:49:13;3.75;;;1.52;;
26042;SDS011;13818;52.156;5.382;2023-02-28T14:51:44;4.00;;;1.70;;
26042;SDS011;13818;52.156;5.382;2023-02-28T14:54:13;3.55;;;1.60;;
26042;SDS011;13818;52.156;5.382;2023-02-28T14:59:22;1.98;;;1.25;;
26042;SDS011;13818;52.156;5.382;2023-02-28T15:01:51;2.58;;;1.40;;
26042;SDS011;13818;52.156;5.382;2023-02-28T15:04:21;2.03;;;1.30;;
26042;SDS011;13818;52.156;5.382;2023-02-28T15:07:06;3.38;;;1.20;;
26042;SDS011;13818;52.156;5.382;2023-02-28T15:09:33;4.00;;;1.80;;
26042;SDS011;13818;52.156;5.382;2023-02-28T15:12:00;2.85;;;1.35;;
26042;SDS011;13818;52.156;5.382;2023-02-28T15:14:26;4.80;;;2.05;;
26042;SDS011;13818;52.156;5.382;2023-02-28T15:16:56;2.17;;;1.35;;
26042;SDS011;13818;52.156;5.382;2023-02-28T15:19:27;3.50;;;1.30;;
26042;SDS011;13818;52.156;5.382;2023-02-28T15:21:58;3.13;;;1.40;;
26042;SDS011;13818;52.156;5.382;2023-02-28T15:24:31;3.92;;;1.95;;
26042;SDS011;13818;52.156;5.382;2023-02-28T15:27:03;4.88;;;2.13;;
26042;SDS011;13818;52.156;5.382;2023-02-28T15:29:34;3.75;;;1.70;;
26042;SDS011;13818;52.156;5.382;2023-02-28T15:32:16;5.03;;;1.10;;
26042;SDS011;13818;52.156;5.382;2023-02-28T15:34:50;3.28;;;1.88;;
26042;SDS011;13818;52.156;5.382;2023-02-28T15:37:27;2.63;;;1.58;;
26042;SDS011;13818;52.156;5.382;2023-02-28T15:39:57;2.60;;;1.67;;
26042;SDS011;13818;52.156;5.382;2023-02-28T15:42:30;3.75;;;1.70;;
26042;SDS011;13818;52.156;5.382;2023-02-28T15:44:56;2.75;;;1.55;;
26042;SDS011;13818;52.156;5.382;2023-02-28T15:47:25;2.65;;;1.42;;
26042;SDS011;13818;52.156;5.382;2023-02-28T15:49:55;5.80;;;1.53;;
26042;SDS011;13818;52.156;5.382;2023-02-28T15:52:26;4.65;;;1.67;;
26042;SDS011;13818;52.156;5.382;2023-02-28T15:54:56;3.42;;;1.48;;
26042;SDS011;13818;52.156;5.382;2023-02-28T15:57:24;2.55;;;1.48;;
26042;SDS011;13818;52.156;5.382;2023-02-28T15:59:54;4.40;;;1.75;;
26042;SDS011;13818;52.156;5.382;2023-02-28T16:02:27;5.03;;;2.10;;